Time;durP1;ratioP1;P1;durP2;ratioP2;P2;SDS_P1;SDS_P2;PMS_P1;PMS_P2;Temp;Humidity;BMP_temperature;BMP_pressure;BME280_temperature;BME280_humidity;BME280_pressure;Samples;Min_cycle;Max_cycle;Signal;HPM_P1;HPM_P2
2021/06/15 00:00:54;;;;;;;13.88;8.73;;;22.00;66.40;;;;;;5070204;28;20436;-65
2021/06/15 00:03:19;;;;;;;12.68;7.65;;;22.00;66.40;;;;;;5071571;28;20024;-65
2021/06/15 00:05:45;;;;;;;15.38;8.93;;;22.00;66.40;;;;;;5070548;28;20020;-66
2021/06/15 00:08:10;;;;;;;13.25;8.27;;;22.00;66.60;;;;;;5070355;28;20082;-65
2021/06/15 00:10:36;;;;;;;15.18;9.35;;;22.00;66.70;;;;;;5070420;28;20012;-64
2021/06/15 00:13:02;;;;;;;14.57;8.65;;;22.00;66.70;;;;;;5071584;28;20055;-65
2021/06/15 00:15:28;;;;;;;13.82;8.27;;;21.90;66.90;;;;;;5071519;28;20024;-65
2021/06/15 00:17:54;;;;;;;12.50;8.00;;;21.90;66.80;;;;;;5070336;28;20016;-65
2021/06/15 00:20:21;;;;;;;13.18;8.18;;;21.90;66.80;;;;;;5071694;28;20027;-66
2021/06/15 00:22:46;;;;;;;16.20;8.93;;;21.90;66.90;;;;;;5070333;28;20035;-66
2021/06/15 00:25:14;;;;;;;12.82;8.15;;;21.80;67.10;;;;;;5070852;28;20037;-65
2021/06/15 00:27:41;;;;;;;14.75;8.85;;;21.80;67.20;;;;;;5070195;28;20067;-65
2021/06/15 00:30:09;;;;;;;15.27;8.60;;;21.80;67.10;;;;;;5071207;28;20516;-65
2021/06/15 00:32:35;;;;;;;13.82;9.00;;;21.80;67.10;;;;;;5070207;28;20520;-65
2021/06/15 00:35:01;;;;;;;13.13;7.78;;;21.80;67.10;;;;;;5071066;28;20032;-65
2021/06/15 00:37:26;;;;;;;13.05;8.93;;;21.80;67.20;;;;;;5071464;28;20025;-65
2021/06/15 00:39:52;;;;;;;14.70;9.25;;;21.80;67.20;;;;;;5071366;28;20024;-65
2021/06/15 00:42:17;;;;;;;14.55;8.63;;;21.70;67.50;;;;;;5068398;28;20135;-66
2021/06/15 00:44:43;;;;;;;12.68;8.00;;;21.80;67.30;;;;;;5073161;28;20025;-66
2021/06/15 00:47:09;;;;;;;12.65;8.13;;;21.70;67.40;;;;;;5075065;28;20040;-65
2021/06/15 00:49:36;;;;;;;12.25;8.25;;;21.70;67.60;;;;;;5074007;28;20590;-64
2021/06/15 00:52:03;;;;;;;14.18;8.43;;;21.70;67.70;;;;;;5075015;28;20078;-65
2021/06/15 00:54:29;;;;;;;13.07;8.90;;;21.70;67.60;;;;;;5074526;28;20455;-65
2021/06/15 00:56:54;;;;;;;14.38;9.38;;;21.50;67.60;;;;;;5075178;28;20099;-65
2021/06/15 00:59:20;;;;;;;13.75;8.63;;;21.60;67.80;;;;;;5075154;28;20027;-65
2021/06/15 01:01:46;;;;;;;13.68;8.18;;;21.60;68.00;;;;;;5075174;28;20028;-67
2021/06/15 01:04:13;;;;;;;13.68;9.23;;;21.60;67.90;;;;;;5074860;28;20044;-65
2021/06/15 01:06:51;;;;;;;14.20;9.07;;;21.60;68.00;;;;;;5074906;28;20494;-65
2021/06/15 01:09:29;;;;;;;13.60;8.85;;;21.60;68.00;;;;;;5075078;28;20115;-64
2021/06/15 01:12:12;;;;;;;15.25;8.45;;;21.60;68.00;;;;;;5073460;28;20035;-66
2021/06/15 01:14:46;;;;;;;15.15;9.23;;;21.60;68.30;;;;;;5074744;28;20017;-65
2021/06/15 01:17:18;;;;;;;14.80;9.57;;;21.60;68.20;;;;;;5074451;28;20082;-64
2021/06/15 01:20:06;;;;;;;14.23;9.90;;;21.50;68.40;;;;;;5074855;28;20024;-65
2021/06/15 01:22:44;;;;;;;14.77;9.45;;;21.60;68.10;;;;;;5074535;28;20120;-65
2021/06/15 01:25:25;;;;;;;13.93;9.63;;;21.50;68.30;;;;;;5073155;28;20066;-67
2021/06/15 01:28:15;;;;;;;15.70;9.77;;;21.50;68.40;;;;;;5074678;28;20023;-64
2021/06/15 01:31:02;;;;;;;15.18;10.00;;;21.50;68.40;;;;;;5074630;28;20107;-65
2021/06/15 01:33:29;;;;;;;16.25;10.18;;;21.50;68.40;;;;;;5073116;28;20111;-67
2021/06/15 01:35:57;;;;;;;15.30;10.20;;;21.50;68.60;;;;;;5074280;28;20476;-64
2021/06/15 01:38:34;;;;;;;15.02;10.27;;;21.40;68.70;;;;;;5070990;28;20025;-64
2021/06/15 01:41:09;;;;;;;15.95;10.38;;;21.40;68.70;;;;;;5074432;28;20039;-65
2021/06/15 01:43:49;;;;;;;15.45;10.70;;;21.40;68.70;;;;;;5072877;28;20025;-67
2021/06/15 01:46:20;;;;;;;18.42;10.70;;;21.40;68.90;;;;;;5074332;28;20033;-64
2021/06/15 01:48:57;;;;;;;19.23;10.90;;;21.40;68.90;;;;;;5073304;28;20454;-64
2021/06/15 01:51:23;;;;;;;17.13;11.02;;;21.30;69.10;;;;;;5074153;28;20485;-67
2021/06/15 01:53:57;;;;;;;15.25;10.80;;;21.30;69.20;;;;;;5073459;28;20039;-64
2021/06/15 01:56:26;;;;;;;15.20;11.05;;;21.30;69.20;;;;;;5072102;28;20031;-65
2021/06/15 01:58:53;;;;;;;19.08;11.38;;;21.20;69.50;;;;;;5074162;28;20029;-64
2021/06/15 02:01:21;;;;;;;17.10;10.82;;;21.20;69.70;;;;;;5074074;28;20036;-66
2021/06/15 02:03:47;;;;;;;18.75;11.82;;;21.20;69.60;;;;;;5071930;28;20106;-64
2021/06/15 02:06:19;;;;;;;13.35;10.95;;;21.20;69.70;;;;;;5074058;28;20020;-66
2021/06/15 02:08:47;;;;;;;18.33;11.73;;;21.20;69.50;;;;;;5073541;28;20028;-64
2021/06/15 02:11:13;;;;;;;18.80;11.50;;;21.20;69.60;;;;;;5073924;28;20119;-65
2021/06/15 02:13:41;;;;;;;15.77;11.20;;;21.20;69.90;;;;;;5069043;28;20118;-64
2021/06/15 02:16:09;;;;;;;17.00;12.38;;;21.10;70.00;;;;;;5073339;28;20023;-65
2021/06/15 02:18:35;;;;;;;16.25;11.68;;;21.10;70.40;;;;;;5073574;28;20021;-65
2021/06/15 02:21:06;;;;;;;17.27;11.32;;;21.10;70.40;;;;;;5072363;28;20020;-64
2021/06/15 02:23:33;;;;;;;17.20;12.07;;;21.10;70.40;;;;;;5072183;28;20028;-65
2021/06/15 02:26:02;;;;;;;17.50;11.85;;;21.10;70.50;;;;;;5073534;28;20101;-65
2021/06/15 02:28:28;;;;;;;15.25;11.50;;;21.10;70.70;;;;;;5073604;28;20474;-64
2021/06/15 02:30:56;;;;;;;16.33;11.35;;;21.10;70.60;;;;;;5073496;28;20036;-65
2021/06/15 02:33:28;;;;;;;16.55;10.90;;;21.10;70.60;;;;;;5072757;28;20044;-65
2021/06/15 02:36:07;;;;;;;16.63;11.55;;;21.10;70.70;;;;;;5073411;28;20025;-65
2021/06/15 02:38:37;;;;;;;21.05;12.38;;;21.10;70.60;;;;;;5126969;22;20079;-64
2021/06/15 02:41:15;;;;;;;18.05;12.27;;;21.10;70.60;;;;;;5064168;28;20100;-63
2021/06/15 02:43:42;;;;;;;17.08;11.65;;;21.10;70.90;;;;;;5053937;28;20115;-63
2021/06/15 02:46:10;;;;;;;14.25;11.07;;;21.10;70.80;;;;;;5071007;28;20519;-65
2021/06/15 02:48:39;;;;;;;17.80;12.45;;;21.20;70.70;;;;;;5054419;28;20025;-64
2021/06/15 02:51:07;;;;;;;18.42;11.88;;;21.20;70.90;;;;;;5053097;28;20112;-63
2021/06/15 02:53:40;;;;;;;18.17;12.85;;;21.10;71.00;;;;;;5066976;28;20070;-64
2021/06/15 02:56:14;;;;;;;17.02;11.88;;;21.10;71.10;;;;;;5067003;28;20077;-63
2021/06/15 02:58:41;;;;;;;17.42;12.23;;;21.10;71.30;;;;;;5072921;28;20024;-64
2021/06/15 03:01:07;;;;;;;16.73;11.98;;;21.10;71.90;;;;;;5072912;28;20029;-63
2021/06/15 03:03:36;;;;;;;20.90;12.88;;;21.10;71.40;;;;;;5072645;28;20039;-63
2021/06/15 03:06:03;;;;;;;16.27;11.35;;;21.10;71.50;;;;;;5072827;28;20052;-63
2021/06/15 03:08:28;;;;;;;18.08;12.40;;;21.00;71.70;;;;;;5072586;28;20564;-62
2021/06/15 03:10:54;;;;;;;18.45;12.60;;;21.00;71.90;;;;;;5072645;28;20031;-63
2021/06/15 03:13:29;;;;;;;19.55;13.30;;;21.00;71.90;;;;;;5072067;28;20126;-63
2021/06/15 03:15:55;;;;;;;20.08;13.23;;;20.90;72.00;;;;;;5052700;28;20493;-63
2021/06/15 03:18:27;;;;;;;21.15;13.55;;;20.90;72.20;;;;;;5052570;28;20032;-62
2021/06/15 03:20:56;;;;;;;17.33;13.45;;;20.90;72.10;;;;;;5051932;28;20027;-66
2021/06/15 03:23:46;;;;;;;20.05;13.73;;;20.90;72.10;;;;;;5052269;28;20104;-63
2021/06/15 03:26:16;;;;;;;19.98;13.52;;;20.90;72.10;;;;;;5052542;28;20498;-63
2021/06/15 03:28:49;;;;;;;19.52;13.40;;;21.00;72.00;;;;;;5052363;28;20056;-63
2021/06/15 03:31:18;;;;;;;19.35;14.48;;;21.00;71.90;;;;;;5052263;28;20044;-64
2021/06/15 03:33:49;;;;;;;21.10;13.68;;;20.90;71.90;;;;;;5034162;28;20021;-63
2021/06/15 03:36:17;;;;;;;17.02;12.80;;;20.90;71.80;;;;;;5034475;28;20060;-63
2021/06/15 03:38:44;;;;;;;22.02;14.90;;;20.90;71.60;;;;;;5052003;28;20039;-64
2021/06/15 03:41:13;;;;;;;19.27;14.50;;;21.00;71.60;;;;;;5052193;28;20029;-63
2021/06/15 03:43:46;;;;;;;19.58;13.90;;;20.90;71.70;;;;;;5057276;28;20485;-66
2021/06/15 03:46:13;;;;;;;22.75;14.75;;;20.90;71.80;;;;;;5072071;28;20035;-62
2021/06/15 03:48:42;;;;;;;19.88;13.80;;;20.80;71.90;;;;;;5071707;28;20024;-66
2021/06/15 03:51:23;;;;;;;20.85;13.93;;;20.90;71.90;;;;;;5071455;28;20028;-65
2021/06/15 03:53:50;;;;;;;21.00;14.13;;;20.80;72.10;;;;;;5071775;28;20012;-63
2021/06/15 03:56:18;;;;;;;18.98;14.40;;;20.80;72.30;;;;;;5070000;28;20055;-63
2021/06/15 03:58:44;;;;;;;18.58;12.82;;;20.90;72.00;;;;;;5069752;28;20031;-64
2021/06/15 04:01:13;;;;;;;22.60;14.13;;;20.90;72.00;;;;;;5070821;28;20394;-63
2021/06/15 04:03:40;;;;;;;20.63;13.25;;;20.90;72.10;;;;;;5053530;28;20024;-62
2021/06/15 04:06:07;;;;;;;18.13;13.50;;;20.90;72.10;;;;;;5049666;28;20075;-63
2021/06/15 04:08:34;;;;;;;18.85;13.45;;;20.90;72.20;;;;;;5069184;28;20397;-63
2021/06/15 04:11:01;;;;;;;20.58;14.40;;;20.80;72.10;;;;;;5071362;28;20025;-63
2021/06/15 04:13:28;;;;;;;21.25;13.80;;;20.80;72.20;;;;;;5071522;28;20078;-63
2021/06/15 04:15:55;;;;;;;19.55;13.40;;;20.80;72.30;;;;;;5069748;28;20024;-66
2021/06/15 04:18:24;;;;;;;19.42;13.27;;;20.80;72.30;;;;;;5070959;28;20024;-63
2021/06/15 04:20:52;;;;;;;20.52;12.45;;;20.80;72.30;;;;;;5063283;28;20029;-62
2021/06/15 04:23:20;;;;;;;19.10;12.80;;;20.80;72.40;;;;;;5071442;28;20055;-62
2021/06/15 04:25:47;;;;;;;18.60;13.07;;;20.80;72.70;;;;;;5071217;28;20563;-62
2021/06/15 04:28:15;;;;;;;17.75;12.50;;;20.80;72.40;;;;;;5069502;28;20379;-65
2021/06/15 04:30:41;;;;;;;20.80;13.95;;;20.80;72.50;;;;;;5068560;28;20029;-66
2021/06/15 04:33:11;;;;;;;23.98;13.30;;;20.80;72.50;;;;;;5065526;28;20548;-62
2021/06/15 04:35:42;;;;;;;21.17;12.95;;;20.80;72.50;;;;;;5070816;28;20532;-63
2021/06/15 04:38:12;;;;;;;19.45;13.57;;;20.80;72.40;;;;;;5057944;28;20029;-63
2021/06/15 04:40:48;;;;;;;19.77;13.05;;;20.80;72.40;;;;;;5065349;28;20025;-64
2021/06/15 04:43:25;;;;;;;20.85;13.25;;;20.80;72.40;;;;;;5040724;28;20401;-67
2021/06/15 04:45:55;;;;;;;25.30;14.10;;;20.80;72.60;;;;;;5061764;28;20017;-66
2021/06/15 04:48:31;;;;;;;17.30;12.50;;;20.70;72.70;;;;;;5064760;28;20036;-63
2021/06/15 04:51:01;;;;;;;17.88;13.18;;;20.80;72.80;;;;;;5055876;28;20017;-64
2021/06/15 04:53:30;;;;;;;19.38;13.45;;;20.80;72.50;;;;;;5064454;28;20024;-63
2021/06/15 04:55:58;;;;;;;24.40;14.02;;;20.90;72.40;;;;;;5064567;28;20036;-67
2021/06/15 04:58:24;;;;;;;21.95;13.63;;;20.90;72.40;;;;;;5064624;28;20123;-63
2021/06/15 05:00:52;;;;;;;18.38;12.95;;;20.80;72.50;;;;;;5063445;28;20124;-63
2021/06/15 05:03:19;;;;;;;18.23;12.98;;;20.80;72.60;;;;;;5059662;28;20024;-63
2021/06/15 05:05:47;;;;;;;20.30;14.13;;;20.80;72.50;;;;;;5051341;28;21047;-62
2021/06/15 05:08:18;;;;;;;21.17;13.90;;;20.80;72.70;;;;;;5085116;28;20024;-63
2021/06/15 05:10:45;;;;;;;21.08;14.55;;;20.70;72.80;;;;;;5065546;28;20048;-64
2021/06/15 05:13:11;;;;;;;21.40;13.55;;;20.80;72.80;;;;;;5064862;28;20108;-64
2021/06/15 05:15:42;;;;;;;20.67;13.85;;;20.80;72.90;;;;;;5044328;28;20032;-66
2021/06/15 05:18:09;;;;;;;21.55;13.82;;;20.80;72.90;;;;;;5059449;28;20077;-69
2021/06/15 05:20:34;;;;;;;19.77;13.55;;;20.80;73.50;;;;;;5046863;28;20127;-65
2021/06/15 05:23:18;;;;;;;24.40;14.23;;;20.80;73.00;;;;;;5047150;28;20120;-69
2021/06/15 05:25:45;;;;;;;21.77;13.52;;;20.80;73.20;;;;;;5046419;28;20044;-63
2021/06/15 05:28:11;;;;;;;20.50;13.10;;;20.70;73.30;;;;;;5057544;28;20036;-71
2021/06/15 05:30:37;;;;;;;20.00;13.20;;;20.70;73.30;;;;;;5065600;28;20481;-67
2021/06/15 05:33:03;;;;;;;21.27;12.52;;;20.70;73.60;;;;;;5049354;28;20081;-68
2021/06/15 05:35:28;;;;;;;19.25;12.10;;;20.60;73.40;;;;;;5067756;28;20029;-66
2021/06/15 05:37:54;;;;;;;18.95;12.30;;;20.60;73.40;;;;;;5068155;28;20049;-66
2021/06/15 05:40:20;;;;;;;17.27;11.15;;;20.50;73.10;;;;;;5068231;28;20021;-66
2021/06/15 05:42:46;;;;;;;18.25;11.30;;;20.50;72.80;;;;;;5068464;28;20083;-64
2021/06/15 05:45:12;;;;;;;13.73;9.10;;;20.60;72.30;;;;;;5067899;28;20029;-62
2021/06/15 05:47:38;;;;;;;14.15;9.18;;;20.60;71.60;;;;;;5050134;28;20082;-63
2021/06/15 05:50:05;;;;;;;12.90;8.70;;;20.60;71.70;;;;;;5067968;28;20036;-62
2021/06/15 05:52:30;;;;;;;13.40;8.23;;;20.60;70.80;;;;;;5068157;28;20028;-62
2021/06/15 05:54:58;;;;;;;13.90;8.70;;;20.60;70.70;;;;;;5067627;28;20074;-63
2021/06/15 05:57:24;;;;;;;12.23;7.82;;;20.60;70.30;;;;;;5067874;28;20028;-68
2021/06/15 05:59:49;;;;;;;12.45;8.05;;;20.50;70.30;;;;;;5049302;28;20417;-66
2021/06/15 06:02:15;;;;;;;12.60;7.78;;;20.60;70.40;;;;;;5049738;28;20039;-63
2021/06/15 06:10:06;;;;;;;24.50;9.15;;;20.50;70.50;;;;;;5066436;28;20170;-63
2021/06/15 06:12:31;;;;;;;20.25;8.57;;;20.70;70.10;;;;;;5066997;28;20035;-62
2021/06/15 06:14:57;;;;;;;25.50;9.52;;;20.90;69.50;;;;;;5049640;28;20028;-64
2021/06/15 06:17:23;;;;;;;18.23;8.95;;;21.00;68.90;;;;;;5049512;28;20032;-63
2021/06/15 06:19:49;;;;;;;17.50;8.70;;;21.00;68.60;;;;;;5067148;28;20359;-66
2021/06/15 06:22:15;;;;;;;16.85;8.07;;;21.00;68.50;;;;;;5067545;28;20032;-65
2021/06/15 06:24:41;;;;;;;14.38;7.70;;;21.00;68.20;;;;;;5067219;28;20032;-65
2021/06/15 06:27:07;;;;;;;15.57;8.73;;;21.00;68.20;;;;;;5048999;28;20028;-64
2021/06/15 06:29:32;;;;;;;14.73;8.48;;;21.00;68.20;;;;;;5067448;28;20393;-63
2021/06/15 06:31:58;;;;;;;12.43;7.60;;;21.00;67.90;;;;;;5049457;28;20097;-64
2021/06/15 06:34:24;;;;;;;12.82;7.22;;;21.00;67.90;;;;;;5067024;28;20493;-60
2021/06/15 06:36:49;;;;;;;13.10;6.90;;;20.90;67.70;;;;;;5049085;28;20047;-64
2021/06/15 06:39:15;;;;;;;11.95;6.45;;;21.00;67.70;;;;;;5050499;28;20175;-62
2021/06/15 06:41:41;;;;;;;13.80;6.05;;;20.90;67.90;;;;;;5065965;28;20024;-69
2021/06/15 06:44:06;;;;;;;13.15;6.35;;;21.00;67.40;;;;;;5058774;28;20664;-63
2021/06/15 06:46:32;;;;;;;11.10;6.50;;;21.00;67.40;;;;;;5061359;28;20493;-64
2021/06/15 06:48:58;;;;;;;11.20;5.85;;;21.00;67.20;;;;;;5066826;28;20061;-65
2021/06/15 06:51:24;;;;;;;11.55;6.05;;;21.00;67.20;;;;;;5048413;28;20055;-66
2021/06/15 06:53:52;;;;;;;16.60;6.38;;;21.00;67.20;;;;;;5066397;28;20028;-64
2021/06/15 06:56:17;;;;;;;13.90;6.95;;;21.00;67.20;;;;;;5067426;28;20740;-66
2021/06/15 06:58:45;;;;;;;12.45;6.60;;;21.00;67.20;;;;;;5067340;28;20028;-63
2021/06/15 07:01:10;;;;;;;11.75;6.70;;;21.00;67.10;;;;;;5049327;28;20025;-64
2021/06/15 07:03:36;;;;;;;14.65;6.90;;;21.10;67.20;;;;;;5066070;28;20421;-62
2021/06/15 07:06:02;;;;;;;10.85;5.97;;;21.10;67.10;;;;;;5045547;28;20057;-66
2021/06/15 07:08:27;;;;;;;12.30;6.32;;;21.20;67.10;;;;;;5045724;28;20025;-64
2021/06/15 07:10:53;;;;;;;12.98;6.30;;;21.20;67.10;;;;;;5045507;28;20029;-66
2021/06/15 07:13:19;;;;;;;11.25;6.03;;;21.30;66.90;;;;;;5045081;28;20021;-62
2021/06/15 07:15:44;;;;;;;11.90;6.30;;;21.30;67.40;;;;;;5045228;28;20496;-62
2021/06/15 07:18:10;;;;;;;9.65;5.75;;;21.20;66.80;;;;;;5044986;28;20029;-63
2021/06/15 07:20:36;;;;;;;10.77;6.05;;;21.30;67.00;;;;;;5060115;28;20493;-66
2021/06/15 07:23:02;;;;;;;12.98;6.22;;;21.20;66.80;;;;;;5066679;28;20099;-62
2021/06/15 07:25:28;;;;;;;11.05;5.97;;;21.20;66.70;;;;;;5065892;28;20116;-65
2021/06/15 07:27:54;;;;;;;10.90;5.72;;;21.10;66.80;;;;;;5066393;28;20107;-65
2021/06/15 07:30:20;;;;;;;23.27;6.47;;;21.20;67.40;;;;;;5066718;28;20059;-65
2021/06/15 07:32:46;;;;;;;10.65;5.32;;;21.20;67.40;;;;;;5066106;28;20027;-62
2021/06/15 07:35:12;;;;;;;13.50;6.13;;;21.20;67.50;;;;;;5048144;28;20078;-67
2021/06/15 07:37:39;;;;;;;11.48;5.50;;;21.30;67.40;;;;;;5066328;28;20444;-62
2021/06/15 07:40:07;;;;;;;12.77;5.07;;;21.20;67.50;;;;;;5066171;28;20044;-66
2021/06/15 07:42:32;;;;;;;13.82;4.93;;;21.20;67.50;;;;;;5041066;28;20116;-65
2021/06/15 07:44:58;;;;;;;11.40;4.85;;;21.20;67.70;;;;;;5065583;28;20107;-64
2021/06/15 07:47:23;;;;;;;10.82;4.15;;;21.20;67.40;;;;;;5057385;28;20040;-62
2021/06/15 07:49:49;;;;;;;11.95;4.25;;;21.10;67.50;;;;;;5048673;28;20024;-63
2021/06/15 07:52:15;;;;;;;10.98;3.90;;;21.10;67.50;;;;;;5065907;28;20042;-65
2021/06/15 07:54:43;;;;;;;8.32;3.60;;;21.10;67.30;;;;;;5064848;28;20638;-64
2021/06/15 07:57:09;;;;;;;8.02;3.50;;;21.10;67.30;;;;;;5066252;28;20054;-62
2021/06/15 07:59:35;;;;;;;10.88;3.20;;;21.10;67.30;;;;;;5065424;28;20472;-67
2021/06/15 08:02:01;;;;;;;8.60;3.20;;;21.10;67.20;;;;;;5047904;28;20024;-63
2021/06/15 08:04:27;;;;;;;8.07;3.30;;;21.10;67.00;;;;;;5065836;28;20277;-62
2021/06/15 08:06:53;;;;;;;9.43;3.17;;;21.10;67.20;;;;;;5058485;28;20021;-63
2021/06/15 08:09:18;;;;;;;10.20;3.08;;;21.10;67.00;;;;;;5045601;28;20025;-63
2021/06/15 08:11:44;;;;;;;8.05;3.40;;;21.10;66.90;;;;;;5028209;28;20060;-65
2021/06/15 08:14:09;;;;;;;9.27;3.10;;;21.10;66.60;;;;;;5027798;28;20045;-62
2021/06/15 08:16:35;;;;;;;11.05;3.92;;;21.20;66.60;;;;;;5045820;28;20820;-61
2021/06/15 08:19:00;;;;;;;8.90;4.07;;;21.20;66.20;;;;;;5030989;28;20427;-64
2021/06/15 08:21:26;;;;;;;9.40;3.88;;;21.20;66.20;;;;;;5059283;28;20043;-62
2021/06/15 08:23:52;;;;;;;10.48;3.90;;;21.20;66.40;;;;;;5045565;28;20033;-60
2021/06/15 08:26:18;;;;;;;9.70;4.07;;;21.20;65.90;;;;;;5038778;28;20027;-60
2021/06/15 08:28:44;;;;;;;10.18;3.88;;;21.30;65.60;;;;;;5057053;28;20026;-60
2021/06/15 08:31:09;;;;;;;9.43;3.47;;;21.40;65.60;;;;;;5069304;28;20085;-62
2021/06/15 08:33:35;;;;;;;10.30;3.50;;;21.60;65.70;;;;;;5069148;28;20024;-59
2021/06/15 08:36:00;;;;;;;7.95;3.35;;;21.70;65.20;;;;;;5066498;28;20027;-61
2021/06/15 08:38:26;;;;;;;8.07;3.25;;;21.80;65.00;;;;;;5064050;28;20490;-60
2021/06/15 08:40:52;;;;;;;8.15;3.40;;;21.70;64.70;;;;;;5071519;28;20081;-60
2021/06/15 08:43:19;;;;;;;9.07;3.13;;;21.80;65.00;;;;;;5070794;28;20036;-59
2021/06/15 08:45:45;;;;;;;6.20;2.60;;;21.70;64.90;;;;;;5053470;28;20043;-60
2021/06/15 08:48:11;;;;;;;7.80;2.80;;;21.70;65.20;;;;;;5053452;28;20032;-60
2021/06/15 08:50:38;;;;;;;7.72;2.83;;;21.80;65.10;;;;;;5071403;28;20025;-60
2021/06/15 08:53:04;;;;;;;7.20;3.00;;;21.70;64.90;;;;;;5053290;28;20029;-60
2021/06/15 08:55:31;;;;;;;7.50;2.88;;;21.70;65.10;;;;;;5071103;28;20031;-60
2021/06/15 08:58:34;;;;;;;7.28;2.90;;;21.70;65.10;;;;;;5071268;28;20024;-61
2021/06/15 09:00:59;;;;;;;7.20;2.75;;;21.70;65.60;;;;;;5071485;28;20051;-61
2021/06/15 09:03:25;;;;;;;5.45;2.50;;;21.70;65.60;;;;;;5053064;28;20049;-60
2021/06/15 09:05:50;;;;;;;7.65;2.80;;;21.70;65.40;;;;;;5074062;28;20465;-61
2021/06/15 09:08:16;;;;;;;6.68;2.65;;;21.90;64.50;;;;;;5074744;28;20100;-60
2021/06/15 09:10:44;;;;;;;8.50;2.75;;;22.00;64.60;;;;;;5075050;28;20059;-60
2021/06/15 09:13:39;;;;;;;5.90;2.38;;;22.00;64.70;;;;;;5074656;28;20032;-60
2021/06/15 09:16:24;;;;;;;6.60;2.67;;;21.90;65.00;;;;;;5057020;28;20048;-60
2021/06/15 09:18:52;;;;;;;6.05;2.50;;;21.80;65.40;;;;;;5074808;28;20020;-60
2021/06/15 09:21:29;;;;;;;6.00;2.85;;;21.80;65.30;;;;;;5056947;28;20070;-60
2021/06/15 09:24:17;;;;;;;6.25;2.75;;;21.70;65.60;;;;;;5074578;28;20116;-61
2021/06/15 09:27:08;;;;;;;6.25;2.95;;;21.70;65.70;;;;;;5056893;28;20048;-59
2021/06/15 09:29:46;;;;;;;6.28;2.47;;;21.70;65.60;;;;;;5074691;28;20032;-59
2021/06/15 09:32:20;;;;;;;8.10;2.70;;;21.80;65.70;;;;;;5056194;28;20020;-61
2021/06/15 09:34:54;;;;;;;6.68;2.80;;;21.70;65.80;;;;;;5056136;28;20016;-60
2021/06/15 09:37:38;;;;;;;6.40;2.40;;;21.70;65.80;;;;;;5074256;28;20103;-59
2021/06/15 09:40:18;;;;;;;8.00;2.55;;;21.80;65.60;;;;;;5056614;28;20115;-60
2021/06/15 09:42:48;;;;;;;;;;;21.80;65.50;;;;;;5056995;28;20024;-60
2021/06/15 09:45:26;;;;;;;6.72;2.75;;;21.90;65.50;;;;;;5074204;28;19950;-60
2021/06/15 09:47:53;;;;;;;6.40;2.35;;;22.00;65.20;;;;;;5074298;28;20032;-61
2021/06/15 09:50:22;;;;;;;6.10;2.40;;;22.40;64.10;;;;;;5056442;28;20393;-60
2021/06/15 09:52:47;;;;;;;4.53;2.60;;;22.50;62.90;;;;;;5056187;28;20036;-60
2021/06/15 09:55:13;;;;;;;7.13;2.75;;;22.90;61.80;;;;;;5074034;28;20552;-60
2021/06/15 09:57:45;;;;;;;5.70;2.55;;;23.10;60.40;;;;;;5056230;28;20106;-60
2021/06/15 10:00:23;;;;;;;4.45;2.33;;;23.10;60.70;;;;;;5056212;28;20019;-61
2021/06/15 10:03:00;;;;;;;5.45;2.30;;;23.60;59.00;;;;;;5074168;28;20505;-62
2021/06/15 10:05:37;;;;;;;5.00;2.38;;;23.90;57.60;;;;;;5055816;28;20508;-63
2021/06/15 10:08:08;;;;;;;5.38;2.47;;;24.20;57.20;;;;;;5074009;28;20025;-62
2021/06/15 10:10:35;;;;;;;;;;;24.30;56.40;;;;;;5074017;28;20107;-61
2021/06/15 10:13:02;;;;;;;5.70;2.22;;;24.30;56.00;;;;;;5073873;28;19908;-61
2021/06/15 10:15:28;;;;;;;5.68;2.60;;;24.20;56.30;;;;;;5055326;28;20167;-60
2021/06/15 10:17:55;;;;;;;6.10;2.50;;;24.20;56.10;;;;;;5072716;28;20079;-59
2021/06/15 10:20:23;;;;;;;4.95;2.22;;;24.40;55.80;;;;;;5073788;28;20505;-61
2021/06/15 10:22:50;;;;;;;4.80;2.30;;;24.50;55.20;;;;;;5073476;28;20036;-60
2021/06/15 10:25:18;;;;;;;4.90;2.42;;;24.20;56.30;;;;;;5073429;28;20032;-60
2021/06/15 10:27:45;;;;;;;7.18;2.50;;;23.90;57.30;;;;;;5073521;28;20025;-60
2021/06/15 10:30:12;;;;;;;5.05;2.40;;;23.80;57.60;;;;;;5073600;28;20029;-60
2021/06/15 10:32:56;;;;;;;5.57;2.30;;;24.20;56.10;;;;;;5073390;28;20131;-61
2021/06/15 10:35:43;;;;;;;5.13;2.10;;;24.60;55.30;;;;;;5054785;28;20029;-61
2021/06/15 10:38:15;;;;;;;5.32;2.28;;;24.50;54.80;;;;;;5073256;28;20512;-60
2021/06/15 10:40:44;;;;;;;5.80;2.25;;;24.60;55.20;;;;;;5072924;28;20028;-60
2021/06/15 10:43:15;;;;;;;5.43;2.38;;;24.50;55.30;;;;;;5073317;28;20086;-60
2021/06/15 10:45:41;;;;;;;5.10;2.30;;;24.40;55.30;;;;;;5072900;28;20035;-60
2021/06/15 10:48:06;;;;;;;5.18;2.42;;;24.30;55.90;;;;;;5073219;28;20036;-61
2021/06/15 10:50:37;;;;;;;6.07;2.55;;;24.00;57.10;;;;;;5055247;28;20052;-61
2021/06/15 10:53:04;;;;;;;6.30;2.53;;;24.00;57.10;;;;;;5073114;28;20616;-60
2021/06/15 10:55:50;;;;;;;6.00;2.42;;;24.00;56.50;;;;;;5072899;28;20443;-60
2021/06/15 10:58:31;;;;;;;6.10;2.30;;;24.40;55.70;;;;;;5072993;28;20016;-60
2021/06/15 11:01:12;;;;;;;5.82;2.33;;;24.60;55.10;;;;;;5072925;28;20378;-59
2021/06/15 11:03:44;;;;;;;;;;;25.00;54.40;;;;;;5073039;28;20107;-61
2021/06/15 11:06:10;;;;;;;5.75;2.20;;;25.10;54.20;;;;;;5072931;28;19910;-61
2021/06/15 11:08:35;;;;;;;4.32;2.10;;;25.20;53.90;;;;;;5054561;28;20024;-59
2021/06/15 11:11:04;;;;;;;6.22;2.30;;;25.20;54.00;;;;;;5072724;28;20025;-60
2021/06/15 11:13:49;;;;;;;4.78;2.20;;;25.30;54.00;;;;;;5054155;28;20106;-60
2021/06/15 11:16:32;;;;;;;5.50;2.20;;;25.30;54.00;;;;;;5054826;28;20024;-60
2021/06/15 11:19:09;;;;;;;5.82;2.10;;;25.30;54.00;;;;;;5054298;28;20028;-60
2021/06/15 11:21:47;;;;;;;5.30;2.53;;;25.20;54.30;;;;;;5054704;28;20034;-60
2021/06/15 11:24:45;;;;;;;4.85;2.00;;;25.10;54.60;;;;;;5072280;28;20428;-60
2021/06/15 11:27:23;;;;;;;3.65;1.95;;;24.90;55.20;;;;;;5054426;28;20029;-59
2021/06/15 11:29:50;;;;;;;4.72;2.15;;;24.40;56.40;;;;;;5071860;28;20480;-60
2021/06/15 11:32:33;;;;;;;3.35;1.90;;;23.80;57.40;;;;;;5054199;28;20551;-61
2021/06/15 11:34:59;;;;;;;3.58;1.80;;;23.50;58.40;;;;;;5053711;28;20047;-61
2021/06/15 11:37:27;;;;;;;4.20;2.00;;;23.20;59.50;;;;;;5072060;28;20051;-61
2021/06/15 11:39:53;;;;;;;5.00;1.90;;;23.10;59.90;;;;;;5054375;28;20036;-60
2021/06/15 11:42:30;;;;;;;3.85;1.70;;;23.00;60.10;;;;;;5072095;28;20027;-60
2021/06/15 11:45:13;;;;;;;3.25;1.77;;;22.90;60.30;;;;;;5054022;28;20028;-60
2021/06/15 11:47:40;;;;;;;5.95;1.92;;;22.80;61.60;;;;;;5071782;28;20041;-60
2021/06/15 11:50:21;;;;;;;4.38;1.90;;;22.80;61.20;;;;;;5072069;28;20029;-60
2021/06/15 11:53:03;;;;;;;4.88;2.20;;;22.80;61.40;;;;;;5071666;28;20028;-60
2021/06/15 11:55:40;;;;;;;4.32;1.77;;;22.80;61.60;;;;;;5071739;28;20512;-60
2021/06/15 11:58:12;;;;;;;3.75;1.80;;;22.80;61.20;;;;;;5071917;28;20652;-60
2021/06/15 12:00:39;;;;;;;;;;;22.70;61.80;;;;;;5054537;28;20107;-61
2021/06/15 12:03:17;;;;;;;3.80;1.50;;;22.70;61.40;;;;;;5053794;28;19911;-60
2021/06/15 12:05:43;;;;;;;5.13;1.60;;;22.70;61.10;;;;;;5053955;28;20027;-59
2021/06/15 12:08:09;;;;;;;3.55;1.50;;;22.70;61.10;;;;;;5053832;28;20029;-60
2021/06/15 12:10:35;;;;;;;5.03;1.83;;;22.70;60.50;;;;;;5053806;28;20039;-61
2021/06/15 12:13:12;;;;;;;4.32;1.60;;;22.70;61.90;;;;;;5053734;28;20024;-61
2021/06/15 12:15:52;;;;;;;4.13;1.55;;;22.70;61.80;;;;;;5071498;28;20044;-61
2021/06/15 12:18:21;;;;;;;5.37;1.70;;;22.70;61.20;;;;;;5071297;28;20024;-60
2021/06/15 12:20:48;;;;;;;5.70;1.63;;;22.70;60.80;;;;;;5071673;28;20385;-60
2021/06/15 12:23:34;;;;;;;4.88;1.70;;;22.60;60.90;;;;;;5053374;28;20024;-60
2021/06/15 12:26:07;;;;;;;3.40;1.30;;;22.60;60.20;;;;;;5053796;28;20440;-60
2021/06/15 12:28:35;;;;;;;4.63;1.45;;;22.60;61.20;;;;;;5053614;28;20024;-59
2021/06/15 12:31:13;;;;;;;3.08;1.35;;;22.60;61.10;;;;;;5070443;28;20028;-59
2021/06/15 12:33:40;;;;;;;4.55;1.70;;;22.60;61.50;;;;;;5047687;28;20028;-60
2021/06/15 12:36:08;;;;;;;3.67;1.40;;;22.70;62.10;;;;;;5053020;28;20029;-61
2021/06/15 12:38:35;;;;;;;4.82;1.60;;;22.60;61.50;;;;;;5053435;28;20028;-60
2021/06/15 12:41:03;;;;;;;3.83;1.52;;;22.80;62.20;;;;;;5074527;28;20463;-60
2021/06/15 12:43:29;;;;;;;3.63;1.60;;;22.80;61.80;;;;;;5075453;28;20020;-60
2021/06/15 12:46:31;;;;;;;4.53;1.50;;;22.80;60.80;;;;;;5057533;28;20025;-60
2021/06/15 12:49:05;;;;;;;3.92;1.63;;;22.80;61.30;;;;;;5062160;28;20064;-60
2021/06/15 12:51:44;;;;;;;4.70;1.60;;;22.70;60.60;;;;;;5075507;28;20036;-63
2021/06/15 12:54:35;;;;;;;4.13;1.55;;;22.70;61.10;;;;;;5075171;28;20013;-63
2021/06/15 12:57:18;;;;;;;3.50;1.45;;;22.70;61.50;;;;;;5075410;28;20021;-63